Rutledge, Alabama
Current Conditions -  °F | °C
As of 10:53 AM on Friday 31 Oct 2014 (Local Time) from KTOI Reporting Station
Clear Clear  
Wind Chill: 66°   Ceiling: Unl
Heat Index: 66°   Visibility: 10mi
Dew Point: 41°   Wind: 7mph
Humidity: 40%   Direction: 10°N
Pressure: 29.99"   Gusts: NA
Location:  31.73°N, 86.31°W
Report Text: KTOI 311553Z AUTO 01006KT 10SM CLR 19/05 A2999 RMK AO2 SLP153 T01890050
Loading
Personal Weather Stations






























Interactive Weather Map
Tropical Storm Tracking
New forecast layout! Learn more

10-Day Weather Forecast

Advertisements
Track Severe Weather on mobile